Time;durP1;ratioP1;P1;durP2;ratioP2;P2;SDS_P1;SDS_P2;PMS_P1;PMS_P2;Temp;Humidity;BMP_temperature;BMP_pressure;BME280_temperature;BME280_humidity;BME280_pressure;Samples;Min_cycle;Max_cycle;Signal;HPM_P1;HPM_P2
2021/10/12 00:02:19;;;;;;;30.67;15.77;;;16.40;50.30;;;;;;5000569;28;20033;-86
2021/10/12 00:04:45;;;;;;;26.15;14.70;;;16.40;50.30;;;;;;5004921;28;20033;-84
2021/10/12 00:07:11;;;;;;;27.55;16.27;;;16.30;50.30;;;;;;5021346;28;20069;-86
2021/10/12 00:09:37;;;;;;;28.48;15.80;;;16.30;50.30;;;;;;4993019;28;20037;-85
2021/10/12 00:12:03;;;;;;;25.65;16.02;;;16.20;50.20;;;;;;4993362;28;20470;-86
2021/10/12 00:14:30;;;;;;;28.50;15.80;;;16.20;50.30;;;;;;5009308;28;20852;-85
2021/10/12 00:16:56;;;;;;;31.17;17.00;;;16.10;50.30;;;;;;5009187;28;20037;-85
2021/10/12 00:19:22;;;;;;;26.52;16.55;;;16.10;50.30;;;;;;4986994;28;20025;-85
2021/10/12 00:21:48;;;;;;;32.45;17.25;;;16.10;50.30;;;;;;4988635;28;20033;-85
2021/10/12 00:24:14;;;;;;;27.23;17.17;;;16.10;50.40;;;;;;5021645;28;20085;-85
2021/10/12 00:26:40;;;;;;;24.85;16.63;;;16.00;50.40;;;;;;5009780;28;20033;-85
2021/10/12 00:29:05;;;;;;;31.23;17.23;;;16.00;50.30;;;;;;5005669;28;20455;-85
2021/10/12 00:31:31;;;;;;;25.23;17.42;;;15.90;50.30;;;;;;5024694;28;20527;-85
2021/10/12 00:33:57;;;;;;;28.33;17.20;;;16.00;50.30;;;;;;4996582;28;20488;-84
2021/10/12 00:36:23;;;;;;;27.90;17.48;;;15.90;50.30;;;;;;5027412;28;20033;-85
2021/10/12 00:38:49;;;;;;;25.27;17.45;;;15.90;50.40;;;;;;4990497;28;20042;-85
2021/10/12 00:41:15;;;;;;;25.17;17.63;;;15.90;50.50;;;;;;5011994;28;20045;-84
2021/10/12 00:43:41;;;;;;;26.13;16.80;;;15.90;50.50;;;;;;5006869;28;20135;-86
2021/10/12 00:46:07;;;;;;;26.35;17.50;;;15.80;50.60;;;;;;5027084;28;20160;-86
2021/10/12 00:48:33;;;;;;;31.15;19.02;;;15.80;50.60;;;;;;5025390;28;20065;-86
2021/10/12 00:50:59;;;;;;;28.27;17.90;;;15.80;50.60;;;;;;5008263;28;20036;-86
2021/10/12 00:53:25;;;;;;;31.42;18.17;;;15.80;50.70;;;;;;5005292;28;20026;-86
2021/10/12 00:55:51;;;;;;;32.50;19.50;;;15.80;50.70;;;;;;4992351;28;20057;-86
2021/10/12 00:58:18;;;;;;;28.02;18.75;;;15.80;50.70;;;;;;5012683;28;20036;-85
2021/10/12 01:00:45;;;;;;;25.75;17.70;;;15.80;50.80;;;;;;5007291;28;20037;-84
2021/10/12 01:03:11;;;;;;;27.67;18.35;;;15.70;50.70;;;;;;5024579;28;20095;-85
2021/10/12 01:05:39;;;;;;;28.05;17.75;;;15.70;50.80;;;;;;5004297;28;20033;-84
2021/10/12 01:08:05;;;;;;;27.60;17.65;;;15.70;50.80;;;;;;5025173;28;20064;-84
2021/10/12 01:10:32;;;;;;;28.38;18.15;;;15.70;50.80;;;;;;5003935;28;20635;-84
2021/10/12 01:12:59;;;;;;;28.08;17.88;;;15.70;50.90;;;;;;5006213;28;20025;-85
2021/10/12 01:15:25;;;;;;;30.77;17.83;;;15.60;50.90;;;;;;5025795;28;20036;-85
2021/10/12 01:17:51;;;;;;;27.95;18.45;;;15.60;51.00;;;;;;4992211;28;20120;-85
2021/10/12 01:20:17;;;;;;;29.73;17.58;;;15.60;51.00;;;;;;5023418;28;20033;-86
2021/10/12 01:22:46;;;;;;;30.13;17.80;;;15.60;51.00;;;;;;4987981;28;20041;-86
2021/10/12 01:25:13;;;;;;;27.30;17.20;;;15.60;51.00;;;;;;5007108;28;20055;-86
2021/10/12 01:27:40;;;;;;;31.45;17.63;;;15.60;51.10;;;;;;5005944;28;20033;-85
2021/10/12 01:30:07;;;;;;;28.00;17.73;;;15.50;51.10;;;;;;5006951;28;20514;-85
2021/10/12 01:32:38;;;;;;;27.42;17.52;;;15.60;51.10;;;;;;5024262;28;20091;-86
2021/10/12 01:35:04;;;;;;;26.13;17.60;;;15.50;51.10;;;;;;4990661;28;20052;-86
2021/10/12 01:37:31;;;;;;;29.98;18.45;;;15.50;51.10;;;;;;5010613;28;20037;-86
2021/10/12 01:39:58;;;;;;;26.15;16.75;;;15.50;51.20;;;;;;5006561;28;20083;-85
2021/10/12 01:42:25;;;;;;;30.50;17.67;;;15.40;51.10;;;;;;5003008;28;20038;-87
2021/10/12 01:44:52;;;;;;;28.30;16.58;;;15.50;51.30;;;;;;5023172;28;20038;-87
2021/10/12 01:47:19;;;;;;;29.92;17.55;;;15.40;51.30;;;;;;5008213;28;20041;-85
2021/10/12 01:49:45;;;;;;;28.80;17.33;;;15.40;51.40;;;;;;5010885;28;20026;-86
2021/10/12 01:52:13;;;;;;;30.00;16.80;;;15.40;51.40;;;;;;5021894;28;20030;-86
2021/10/12 01:54:39;;;;;;;25.55;16.83;;;15.40;51.50;;;;;;5009857;28;20071;-86
2021/10/12 01:57:05;;;;;;;28.63;17.35;;;15.40;51.50;;;;;;5007024;28;20061;-85
2021/10/12 01:59:31;;;;;;;28.35;17.63;;;15.40;51.50;;;;;;4994741;28;20033;-85
2021/10/12 02:02:01;;;;;;;29.25;17.23;;;15.30;51.50;;;;;;5011482;28;20037;-85
2021/10/12 02:04:28;;;;;;;26.15;17.48;;;15.40;51.50;;;;;;5011106;28;20041;-85
2021/10/12 02:06:54;;;;;;;24.63;16.60;;;15.30;51.50;;;;;;5023367;28;20045;-86
2021/10/12 02:09:20;;;;;;;26.80;16.55;;;15.30;51.50;;;;;;5023932;28;20112;-86
2021/10/12 02:11:46;;;;;;;29.20;17.13;;;15.30;51.50;;;;;;5002101;28;20121;-86
2021/10/12 02:14:13;;;;;;;29.42;17.02;;;15.30;51.50;;;;;;5004710;28;20026;-85
2021/10/12 02:16:39;;;;;;;25.27;15.73;;;15.30;51.70;;;;;;4993615;28;20132;-85
2021/10/12 02:19:05;;;;;;;24.83;16.58;;;15.30;51.60;;;;;;4989089;28;20092;-84
2021/10/12 02:21:31;;;;;;;27.40;16.42;;;15.30;51.70;;;;;;5026433;28;20037;-84
2021/10/12 02:23:58;;;;;;;27.65;17.80;;;15.20;51.70;;;;;;4989600;28;20052;-85
2021/10/12 02:26:24;;;;;;;24.65;16.42;;;15.20;51.80;;;;;;5009458;28;20041;-86
2021/10/12 02:28:50;;;;;;;25.63;16.67;;;15.30;51.90;;;;;;5021470;28;20032;-85
2021/10/12 02:31:16;;;;;;;26.38;15.65;;;15.20;51.90;;;;;;4992781;28;20079;-84
2021/10/12 02:33:42;;;;;;;27.77;16.65;;;15.20;51.90;;;;;;5026141;28;20029;-86
2021/10/12 02:36:08;;;;;;;27.65;17.13;;;15.20;52.00;;;;;;5010985;28;20119;-86
2021/10/12 02:38:34;;;;;;;26.80;16.85;;;15.20;52.00;;;;;;5024381;28;20076;-87
2021/10/12 02:41:00;;;;;;;27.00;16.15;;;15.10;52.00;;;;;;5010065;28;20119;-84
2021/10/12 02:43:26;;;;;;;26.08;17.00;;;15.20;52.00;;;;;;5003802;28;20524;-86
2021/10/12 02:45:52;;;;;;;28.65;17.58;;;15.20;52.00;;;;;;5007048;28;20092;-86
2021/10/12 02:48:18;;;;;;;29.95;17.70;;;15.20;52.00;;;;;;5022465;28;20422;-86
2021/10/12 02:50:44;;;;;;;27.52;16.88;;;15.10;52.00;;;;;;5006833;28;20037;-86
2021/10/12 02:53:11;;;;;;;30.25;16.45;;;15.10;52.00;;;;;;4992063;28;20030;-85
2021/10/12 02:55:37;;;;;;;27.75;16.13;;;15.10;52.10;;;;;;5006488;28;20054;-85
2021/10/12 02:58:03;;;;;;;27.20;16.88;;;15.10;52.10;;;;;;4987122;28;20495;-85
2021/10/12 03:00:29;;;;;;;25.75;16.17;;;15.10;52.10;;;;;;5003099;28;20549;-86
2021/10/12 03:02:55;;;;;;;25.20;15.73;;;15.10;52.20;;;;;;5023235;28;20933;-85
2021/10/12 03:05:21;;;;;;;28.60;16.27;;;15.10;52.20;;;;;;5009010;28;20029;-86
2021/10/12 03:07:47;;;;;;;31.17;16.85;;;15.10;52.30;;;;;;5004489;28;20029;-86
2021/10/12 03:10:13;;;;;;;31.25;17.25;;;15.10;52.40;;;;;;4993680;28;20946;-86
2021/10/12 03:12:39;;;;;;;27.98;15.90;;;15.00;52.30;;;;;;4993798;28;20025;-86
2021/10/12 03:15:06;;;;;;;27.70;15.85;;;15.10;52.40;;;;;;5008099;28;20021;-86
2021/10/12 03:17:32;;;;;;;28.70;16.63;;;15.00;52.40;;;;;;5006132;28;20087;-85
2021/10/12 03:19:58;;;;;;;25.65;16.20;;;15.10;52.40;;;;;;5023298;28;20030;-85
2021/10/12 03:22:24;;;;;;;29.08;15.93;;;15.00;52.40;;;;;;4989095;28;20419;-87
2021/10/12 03:24:50;;;;;;;31.30;16.60;;;15.00;52.40;;;;;;5023349;28;20037;-85
2021/10/12 03:27:16;;;;;;;28.08;15.82;;;15.00;52.40;;;;;;5021116;28;20044;-84
2021/10/12 03:29:42;;;;;;;25.35;15.68;;;15.00;52.50;;;;;;5003186;28;20029;-86
2021/10/12 03:32:09;;;;;;;28.08;16.38;;;15.00;52.50;;;;;;5006051;28;20067;-86
2021/10/12 03:34:35;;;;;;;28.75;15.40;;;15.00;52.50;;;;;;5009973;28;20120;-85
2021/10/12 03:37:01;;;;;;;26.58;15.85;;;15.00;52.60;;;;;;5004597;28;20455;-84
2021/10/12 03:39:28;;;;;;;26.38;16.38;;;15.00;52.60;;;;;;5024327;28;20501;-84
2021/10/12 03:41:54;;;;;;;23.65;16.15;;;14.90;52.60;;;;;;4993242;28;20044;-83
2021/10/12 03:44:21;;;;;;;25.48;15.35;;;14.90;52.60;;;;;;5005473;28;20029;-84
2021/10/12 03:46:47;;;;;;;27.90;15.52;;;14.90;52.60;;;;;;5021070;28;20087;-80
2021/10/12 03:49:13;;;;;;;24.65;15.57;;;14.90;52.60;;;;;;5021195;28;20029;-81
2021/10/12 03:51:43;;;;;;;25.77;15.27;;;14.90;52.60;;;;;;5021587;28;20033;-82
2021/10/12 03:54:14;;;;;;;24.20;15.00;;;14.90;52.50;;;;;;5003141;28;20021;-81
2021/10/12 03:56:40;;;;;;;23.38;14.57;;;14.90;52.60;;;;;;4997898;28;20057;-84
2021/10/12 03:59:06;;;;;;;23.23;15.75;;;14.90;52.60;;;;;;4987448;28;20036;-83
2021/10/12 04:01:33;;;;;;;26.73;15.82;;;14.90;52.70;;;;;;5003150;28;20132;-83
2021/10/12 04:04:03;;;;;;;25.00;15.32;;;14.90;52.70;;;;;;5000475;28;20166;-83
2021/10/12 04:06:29;;;;;;;23.35;15.10;;;14.90;52.60;;;;;;5024696;28;20039;-81
2021/10/12 04:08:56;;;;;;;22.85;13.90;;;14.90;52.60;;;;;;5026398;28;20029;-81
2021/10/12 04:11:24;;;;;;;22.40;14.38;;;14.90;52.70;;;;;;5027944;28;20029;-81
2021/10/12 04:13:50;;;;;;;28.48;15.32;;;14.80;52.70;;;;;;5028763;28;20476;-81
2021/10/12 04:16:16;;;;;;;22.50;14.70;;;14.90;52.70;;;;;;5028609;28;20043;-82
2021/10/12 04:18:42;;;;;;;28.23;15.10;;;14.90;53.30;;;;;;5010929;28;20457;-82
2021/10/12 04:21:08;;;;;;;23.63;14.82;;;14.90;52.80;;;;;;5025547;28;20037;-86
2021/10/12 04:23:36;;;;;;;23.38;14.88;;;14.80;52.70;;;;;;5011799;28;20526;-81
2021/10/12 04:26:06;;;;;;;24.83;15.48;;;14.80;52.80;;;;;;5009529;28;20440;-83
2021/10/12 04:28:32;;;;;;;23.45;13.98;;;14.80;52.70;;;;;;5024974;28;20417;-81
2021/10/12 04:30:58;;;;;;;23.58;14.57;;;14.80;52.70;;;;;;5024748;28;20033;-85
2021/10/12 04:33:23;;;;;;;24.73;15.23;;;14.80;52.80;;;;;;5004803;28;20384;-83
2021/10/12 04:35:50;;;;;;;22.95;14.95;;;14.80;52.80;;;;;;5011955;28;20045;-83
2021/10/12 04:38:16;;;;;;;26.45;15.07;;;14.80;52.80;;;;;;5011241;28;20033;-84
2021/10/12 04:40:42;;;;;;;23.95;14.57;;;14.80;52.80;;;;;;5012442;28;20495;-84
2021/10/12 04:43:08;;;;;;;21.83;14.55;;;14.80;52.90;;;;;;5010718;28;20053;-83
2021/10/12 04:45:36;;;;;;;22.90;14.45;;;14.70;53.00;;;;;;4992508;28;20042;-84
2021/10/12 04:48:04;;;;;;;26.67;15.27;;;14.70;53.00;;;;;;5024044;28;20038;-82
2021/10/12 04:50:30;;;;;;;25.23;15.25;;;14.80;53.00;;;;;;5005880;28;20026;-83
2021/10/12 04:53:00;;;;;;;28.27;15.25;;;14.80;53.00;;;;;;5008442;28;20029;-83
2021/10/12 04:55:26;;;;;;;27.27;15.77;;;14.80;53.00;;;;;;5004139;28;20459;-83
2021/10/12 04:57:52;;;;;;;23.65;14.93;;;14.70;53.00;;;;;;5011177;28;20037;-82
2021/10/12 05:00:17;;;;;;;26.25;15.10;;;14.70;53.10;;;;;;5007221;28;20053;-87
2021/10/12 05:02:43;;;;;;;25.58;15.02;;;14.70;53.10;;;;;;5004989;28;20033;-87
2021/10/12 05:05:09;;;;;;;22.00;15.40;;;14.70;53.20;;;;;;5009742;28;20065;-86
2021/10/12 05:07:38;;;;;;;24.10;16.08;;;14.70;53.30;;;;;;5016806;28;20038;-87
2021/10/12 05:10:05;;;;;;;22.88;15.02;;;14.70;53.30;;;;;;5035018;28;20041;-83
2021/10/12 05:12:31;;;;;;;25.63;15.48;;;14.70;53.30;;;;;;5016600;28;20437;-84
2021/10/12 05:14:57;;;;;;;24.33;15.57;;;14.70;53.30;;;;;;5033721;28;20061;-84
2021/10/12 05:17:32;;;;;;;27.67;15.35;;;14.80;53.30;;;;;;5033910;28;20476;-85
2021/10/12 05:19:58;;;;;;;24.80;15.80;;;14.90;53.40;;;;;;5017200;28;20064;-85
2021/10/12 05:22:24;;;;;;;25.30;15.07;;;15.00;53.30;;;;;;5016003;28;20069;-83
2021/10/12 05:24:50;;;;;;;29.55;16.40;;;15.10;53.20;;;;;;5032266;28;20511;-85
2021/10/12 05:27:16;;;;;;;23.08;15.05;;;15.20;53.00;;;;;;5031029;28;20044;-85
2021/10/12 05:29:43;;;;;;;30.23;16.75;;;15.30;52.80;;;;;;5023437;28;20030;-86
2021/10/12 05:32:09;;;;;;;26.52;15.82;;;15.50;52.70;;;;;;5022409;28;20080;-86
2021/10/12 05:34:35;;;;;;;24.60;15.73;;;15.60;52.60;;;;;;4993478;28;20037;-86
2021/10/12 05:37:01;;;;;;;28.63;15.65;;;15.80;52.50;;;;;;5023425;28;20477;-87
2021/10/12 05:39:28;;;;;;;29.52;16.58;;;15.90;52.20;;;;;;5006546;28;20037;-87
2021/10/12 05:41:57;;;;;;;26.02;15.27;;;15.90;52.00;;;;;;5009895;28;20504;-84
2021/10/12 05:44:23;;;;;;;28.45;15.23;;;16.00;51.70;;;;;;5007757;28;20056;-86
2021/10/12 05:46:50;;;;;;;26.20;15.65;;;16.10;51.70;;;;;;5004128;28;20044;-85
2021/10/12 05:49:16;;;;;;;27.48;16.35;;;16.20;51.50;;;;;;5020824;28;20034;-84
2021/10/12 05:51:45;;;;;;;26.60;15.85;;;16.40;51.50;;;;;;5021384;28;20496;-85
2021/10/12 05:54:15;;;;;;;28.98;15.38;;;16.40;51.30;;;;;;5007563;28;20032;-86
2021/10/12 05:57:34;;;;;;;34.15;16.20;;;16.40;51.10;;;;;;5019788;28;20563;-86
2021/10/12 05:59:30;;;;;;;34.70;16.60;;;16.40;51.00;;;;;;4991994;28;20037;-85
2021/10/12 06:01:56;;;;;;;28.40;15.88;;;16.50;51.20;;;;;;5023065;28;20034;-82
2021/10/12 06:04:22;;;;;;;31.88;17.23;;;16.50;50.90;;;;;;5021362;28;20065;-85
2021/10/12 06:06:47;;;;;;;28.50;15.95;;;16.50;50.90;;;;;;5004803;28;20041;-84
2021/10/12 06:09:13;;;;;;;24.83;17.33;;;16.50;50.90;;;;;;5027546;28;20130;-91
2021/10/12 06:11:39;;;;;;;33.97;18.27;;;16.50;51.60;;;;;;4994163;28;20029;-89
2021/10/12 06:14:05;;;;;;;32.53;17.67;;;16.40;51.80;;;;;;5022918;28;20041;-91
2021/10/12 06:16:31;;;;;;;30.30;19.40;;;16.30;52.10;;;;;;5025422;28;20041;-91
2021/10/12 06:18:57;;;;;;;45.38;27.98;;;16.30;52.10;;;;;;5038550;28;20060;-92
2021/10/12 06:21:23;;;;;;;38.25;21.90;;;16.20;52.60;;;;;;5008986;28;20990;-93
2021/10/12 06:23:49;;;;;;;38.33;19.70;;;16.20;52.80;;;;;;5008148;28;20132;-88
2021/10/12 06:26:15;;;;;;;31.90;19.45;;;16.10;52.60;;;;;;4989041;28;20496;-88
2021/10/12 06:28:41;;;;;;;33.55;19.02;;;16.10;52.80;;;;;;5004313;28;20112;-90
2021/10/12 06:31:07;;;;;;;33.15;18.17;;;16.20;53.10;;;;;;5004064;28;20030;-86
2021/10/12 06:33:34;;;;;;;33.88;18.83;;;16.30;53.00;;;;;;5020608;28;20056;-86
2021/10/12 06:36:00;;;;;;;35.53;19.63;;;16.30;53.10;;;;;;5001655;28;20017;-86
2021/10/12 06:38:26;;;;;;;30.42;19.17;;;16.30;52.70;;;;;;5047201;28;20014;-86
2021/10/12 06:40:52;;;;;;;34.28;19.65;;;16.40;52.70;;;;;;5029763;28;20033;-87
2021/10/12 06:43:18;;;;;;;34.65;19.45;;;16.50;52.50;;;;;;5028747;28;20026;-89
2021/10/12 06:45:44;;;;;;;37.55;18.95;;;16.50;52.30;;;;;;4993741;28;20489;-87
2021/10/12 06:48:10;;;;;;;37.25;19.20;;;16.60;52.30;;;;;;5023524;28;20128;-87
2021/10/12 06:50:36;;;;;;;34.90;19.50;;;16.70;51.90;;;;;;5023808;28;20128;-86
2021/10/12 06:53:04;;;;;;;30.17;18.20;;;16.80;51.70;;;;;;5009114;28;20587;-86
2021/10/12 06:55:30;;;;;;;35.40;18.65;;;17.00;51.40;;;;;;5004736;28;20054;-86
2021/10/12 06:57:56;;;;;;;28.85;18.45;;;17.10;51.40;;;;;;4992468;28;21409;-88
2021/10/12 07:00:22;;;;;;;30.17;19.20;;;17.20;51.30;;;;;;5014566;28;20041;-85
2021/10/12 07:02:48;;;;;;;32.20;18.55;;;17.30;50.90;;;;;;5033651;28;20037;-88
2021/10/12 07:05:15;;;;;;;36.85;19.25;;;17.40;50.40;;;;;;4996322;28;20037;-87
2021/10/12 07:07:41;;;;;;;31.33;17.95;;;17.50;50.20;;;;;;4997929;28;20040;-86
2021/10/12 07:10:09;;;;;;;32.92;18.85;;;17.60;50.30;;;;;;5011120;28;20034;-85
2021/10/12 07:12:35;;;;;;;34.15;19.40;;;17.60;50.10;;;;;;4999566;28;20037;-87
2021/10/12 07:15:02;;;;;;;30.35;18.95;;;17.70;49.90;;;;;;5015688;28;20033;-87
2021/10/12 07:17:28;;;;;;;34.38;19.33;;;17.70;50.00;;;;;;5014929;28;20033;-86
2021/10/12 07:19:54;;;;;;;31.55;17.73;;;17.80;49.60;;;;;;5004536;28;20047;-88
2021/10/12 07:22:22;;;;;;;29.92;18.23;;;17.80;49.30;;;;;;5002919;28;20147;-85
2021/10/12 07:24:52;;;;;;;27.95;17.35;;;17.80;49.30;;;;;;5007018;28;20093;-88
2021/10/12 07:27:18;;;;;;;26.48;16.17;;;17.90;49.20;;;;;;5020252;28;20038;-86
2021/10/12 07:29:50;;;;;;;30.33;16.98;;;17.90;49.50;;;;;;5007117;28;20038;-89
2021/10/12 07:32:17;;;;;;;30.00;17.65;;;17.90;49.20;;;;;;5022500;28;20072;-84
2021/10/12 07:34:43;;;;;;;32.22;16.85;;;18.00;49.20;;;;;;5044672;28;20017;-85
2021/10/12 07:37:09;;;;;;;28.20;18.48;;;18.10;49.20;;;;;;5030705;28;20041;-86
2021/10/12 07:39:35;;;;;;;34.70;18.17;;;18.10;49.00;;;;;;4991860;28;20065;-86
2021/10/12 07:42:05;;;;;;;28.75;17.23;;;18.10;49.10;;;;;;5030182;28;20032;-85
2021/10/12 07:44:32;;;;;;;26.25;17.65;;;18.20;49.00;;;;;;5032321;28;20017;-86
2021/10/12 07:46:58;;;;;;;31.20;16.85;;;18.20;48.60;;;;;;5014584;28;20040;-87
2021/10/12 07:49:24;;;;;;;28.92;16.90;;;18.20;48.70;;;;;;5029194;28;20034;-85
2021/10/12 07:51:50;;;;;;;27.35;17.35;;;18.20;48.70;;;;;;5031925;28;20369;-86
2021/10/12 07:54:24;;;;;;;29.95;17.05;;;18.20;49.10;;;;;;5014346;28;20112;-85
2021/10/12 07:56:50;;;;;;;26.85;16.08;;;18.20;48.70;;;;;;5032134;28;20057;-87
2021/10/12 07:59:18;;;;;;;30.30;17.42;;;18.20;48.40;;;;;;5029445;28;20510;-85
2021/10/12 08:01:44;;;;;;;35.47;23.63;;;18.20;48.40;;;;;;5030369;28;20041;-86
2021/10/12 08:04:10;;;;;;;36.20;19.88;;;18.20;48.50;;;;;;5013339;28;20029;-86
2021/10/12 08:06:37;;;;;;;27.05;16.92;;;18.20;48.50;;;;;;5014237;28;20040;-86
2021/10/12 08:09:03;;;;;;;26.20;16.58;;;18.20;48.20;;;;;;5029203;28;20557;-87
2021/10/12 08:11:29;;;;;;;22.48;15.10;;;18.20;47.80;;;;;;5014402;28;20041;-87
2021/10/12 08:14:00;;;;;;;25.55;14.50;;;18.20;47.50;;;;;;5014272;28;20057;-87
2021/10/12 08:16:30;;;;;;;25.85;14.77;;;18.20;47.60;;;;;;5013974;28;20127;-87
2021/10/12 08:19:01;;;;;;;25.42;15.30;;;18.20;48.10;;;;;;5013255;28;20041;-87
2021/10/12 08:21:29;;;;;;;26.00;14.68;;;18.20;47.50;;;;;;4998170;28;20084;-85
2021/10/12 08:23:57;;;;;;;20.77;14.15;;;18.20;47.80;;;;;;5032036;28;20033;-87
2021/10/12 08:26:24;;;;;;;23.92;14.07;;;18.20;47.90;;;;;;5014798;28;20057;-86
2021/10/12 08:28:51;;;;;;;22.75;14.05;;;18.20;48.10;;;;;;5034389;28;20041;-85
2021/10/12 08:31:17;;;;;;;26.25;14.07;;;18.20;47.90;;;;;;5054266;28;20372;-86
2021/10/12 08:33:44;;;;;;;23.23;13.40;;;18.20;47.90;;;;;;5028936;28;20616;-86
2021/10/12 08:36:11;;;;;;;21.42;13.40;;;18.20;47.70;;;;;;5032510;28;20092;-86
2021/10/12 08:38:41;;;;;;;22.35;12.55;;;18.20;47.60;;;;;;5013565;28;20035;-86
2021/10/12 08:41:07;;;;;;;20.67;12.95;;;18.20;47.70;;;;;;4997874;28;20076;-86
2021/10/12 08:43:38;;;;;;;17.95;12.48;;;18.20;47.90;;;;;;4992680;28;20044;-85
2021/10/12 08:46:06;;;;;;;17.42;12.50;;;18.20;47.50;;;;;;5004620;28;20041;-87
2021/10/12 08:48:33;;;;;;;19.90;12.52;;;18.20;47.50;;;;;;4994321;28;20059;-84
2021/10/12 08:51:02;;;;;;;18.98;12.85;;;18.20;47.60;;;;;;5003713;28;20041;-86
2021/10/12 08:53:29;;;;;;;20.27;12.70;;;18.10;47.60;;;;;;4991634;28;20578;-87
2021/10/12 08:55:57;;;;;;;20.00;11.98;;;18.20;47.90;;;;;;5024564;28;20100;-87
2021/10/12 08:58:24;;;;;;;19.42;12.20;;;18.10;48.30;;;;;;5023836;28;20034;-89
2021/10/12 09:01:11;;;;;;;21.65;12.32;;;18.20;48.20;;;;;;5024624;28;20038;-88
2021/10/12 09:06:31;;;;;;;20.00;12.13;;;18.10;47.80;;;;;;5028596;28;20041;-88
2021/10/12 09:09:04;;;;;;;23.40;12.48;;;18.10;47.80;;;;;;5034974;28;20808;-87
2021/10/12 09:11:34;;;;;;;18.17;12.43;;;18.10;48.10;;;;;;5017159;28;20033;-89
2021/10/12 09:14:06;;;;;;;19.13;12.20;;;18.10;47.70;;;;;;5014340;28;20043;-88
2021/10/12 09:16:41;;;;;;;20.42;12.27;;;18.10;47.60;;;;;;5009709;28;20037;-89
2021/10/12 09:19:08;;;;;;;19.00;11.48;;;18.10;47.90;;;;;;5011236;28;20095;-87
2021/10/12 09:21:39;;;;;;;19.77;11.98;;;18.10;48.30;;;;;;5034043;28;20038;-89
2021/10/12 09:24:09;;;;;;;19.67;11.48;;;18.10;47.40;;;;;;5028885;28;20041;-88
2021/10/12 09:26:48;;;;;;;17.83;11.65;;;18.10;47.60;;;;;;5060218;28;20029;-87
2021/10/12 09:31:51;;;;;;;20.50;11.23;;;18.00;47.90;;;;;;5029488;28;20029;-88
2021/10/12 09:34:18;;;;;;;22.20;10.85;;;18.00;47.80;;;;;;5023171;28;20559;-87
2021/10/12 09:36:46;;;;;;;15.40;10.55;;;18.00;47.80;;;;;;5023694;28;20131;-88
2021/10/12 09:39:26;;;;;;;18.35;10.40;;;18.00;46.90;;;;;;5026152;28;20033;-87
2021/10/12 09:42:07;;;;;;;19.80;10.32;;;18.00;46.80;;;;;;5011178;28;21320;-86
2021/10/12 09:44:52;;;;;;;15.77;9.55;;;18.00;47.00;;;;;;5026977;28;20041;-87
2021/10/12 09:47:19;;;;;;;17.20;10.38;;;17.90;47.50;;;;;;5033424;28;20034;-88
2021/10/12 09:49:46;;;;;;;17.73;10.73;;;17.90;47.90;;;;;;5020513;28;20034;-87
2021/10/12 09:52:14;;;;;;;14.68;9.98;;;17.80;47.90;;;;;;5033370;28;20196;-86
2021/10/12 09:54:57;;;;;;;20.08;10.88;;;17.90;48.20;;;;;;5022403;28;20455;-88
2021/10/12 09:57:30;;;;;;;14.73;9.80;;;17.90;48.40;;;;;;5022800;28;20053;-88
2021/10/12 09:59:57;;;;;;;14.82;9.50;;;17.80;48.60;;;;;;5025223;28;20163;-86
2021/10/12 10:02:24;;;;;;;19.15;10.73;;;17.80;48.50;;;;;;5023629;28;20033;-85
2021/10/12 10:04:52;;;;;;;17.17;10.00;;;17.80;48.70;;;;;;5024515;28;20101;-85
2021/10/12 10:07:31;;;;;;;15.07;9.65;;;17.90;48.90;;;;;;5020704;28;20037;-84
2021/10/12 10:10:02;;;;;;;17.52;9.43;;;17.90;49.20;;;;;;5005434;28;20098;-84
2021/10/12 10:12:29;;;;;;;14.70;9.55;;;17.90;49.40;;;;;;5028585;28;20029;-85
2021/10/12 10:14:54;;;;;;;15.88;9.30;;;17.90;49.00;;;;;;5008216;28;20042;-86
2021/10/12 10:17:22;;;;;;;13.93;8.63;;;17.90;48.50;;;;;;5014732;28;20051;-85
2021/10/12 10:19:49;;;;;;;14.70;8.30;;;17.90;48.40;;;;;;5034973;28;20147;-85
2021/10/12 10:22:47;;;;;;;13.07;8.05;;;17.90;47.60;;;;;;5039116;28;20048;-85
2021/10/12 10:25:29;;;;;;;12.18;7.70;;;17.90;47.20;;;;;;5035268;28;20124;-85
2021/10/12 10:27:57;;;;;;;10.57;7.30;;;17.90;46.10;;;;;;5031637;28;20065;-85
2021/10/12 10:30:29;;;;;;;9.95;7.40;;;17.80;46.10;;;;;;5030980;28;20144;-86
2021/10/12 10:33:01;;;;;;;12.23;7.82;;;17.80;46.20;;;;;;5012912;28;20040;-86
2021/10/12 10:35:36;;;;;;;13.30;7.72;;;17.80;46.10;;;;;;5011658;28;20109;-86
2021/10/12 10:38:20;;;;;;;16.20;7.70;;;17.80;45.10;;;;;;5032625;28;20041;-86
2021/10/12 10:40:51;;;;;;;18.08;8.75;;;17.80;45.30;;;;;;5014937;28;20042;-88
2021/10/12 10:43:17;;;;;;;12.70;7.55;;;17.70;45.90;;;;;;5013159;28;20089;-85
2021/10/12 10:45:51;;;;;;;15.05;8.07;;;17.70;45.10;;;;;;5014827;28;20041;-86
2021/10/12 10:48:20;;;;;;;15.02;7.55;;;17.70;45.70;;;;;;5016459;28;20030;-85
2021/10/12 10:50:47;;;;;;;12.10;8.00;;;17.70;45.50;;;;;;5016803;28;20039;-86
2021/10/12 10:53:38;;;;;;;14.32;8.55;;;17.70;45.50;;;;;;5014820;28;20037;-86
2021/10/12 10:56:04;;;;;;;13.35;7.57;;;17.70;45.70;;;;;;5008982;28;20061;-87
2021/10/12 10:58:30;;;;;;;15.52;8.00;;;17.70;45.80;;;;;;5015069;28;20045;-85
2021/10/12 11:00:56;;;;;;;11.15;8.63;;;17.70;45.50;;;;;;5014402;28;20029;-85
2021/10/12 11:03:34;;;;;;;13.52;8.32;;;17.70;45.80;;;;;;5026498;28;20052;-85
2021/10/12 11:06:13;;;;;;;13.68;8.52;;;17.70;45.90;;;;;;4991706;28;20033;-85
2021/10/12 11:08:54;;;;;;;10.43;8.52;;;17.70;45.70;;;;;;5011033;28;20041;-85
2021/10/12 11:11:20;;;;;;;10.80;8.20;;;17.70;45.50;;;;;;5025598;28;20097;-84
2021/10/12 11:13:46;;;;;;;12.52;8.75;;;17.70;46.00;;;;;;5022883;28;20121;-86
2021/10/12 11:16:15;;;;;;;13.38;8.35;;;17.70;45.90;;;;;;5007547;28;20034;-84
2021/10/12 11:18:44;;;;;;;12.15;8.25;;;17.70;45.60;;;;;;5027330;28;20485;-84
2021/10/12 11:21:12;;;;;;;12.50;8.27;;;17.70;45.80;;;;;;4997076;28;20048;-85
2021/10/12 11:23:40;;;;;;;13.90;8.15;;;17.70;45.50;;;;;;4990984;28;20384;-86
2021/10/12 11:26:15;;;;;;;12.93;8.20;;;17.70;45.70;;;;;;5020780;28;20120;-86
2021/10/12 11:28:47;;;;;;;14.93;9.25;;;17.70;45.90;;;;;;5019856;28;20076;-85
2021/10/12 11:31:15;;;;;;;12.88;8.60;;;17.70;46.20;;;;;;5007139;28;20102;-83
2021/10/12 11:33:49;;;;;;;16.38;9.13;;;17.70;45.70;;;;;;5021600;28;20032;-85
2021/10/12 11:36:17;;;;;;;14.50;8.95;;;17.70;45.70;;;;;;5001689;28;20040;-85
2021/10/12 11:38:46;;;;;;;13.48;9.23;;;17.70;45.60;;;;;;5003780;28;20444;-85
2021/10/12 11:41:35;;;;;;;15.07;9.13;;;17.70;45.60;;;;;;5007837;28;20508;-85
2021/10/12 11:44:21;;;;;;;13.50;9.50;;;17.70;45.20;;;;;;5003732;28;20423;-85
2021/10/12 11:46:52;;;;;;;14.60;9.52;;;17.60;45.40;;;;;;4994163;28;20064;-85
2021/10/12 11:49:20;;;;;;;15.35;9.75;;;17.70;45.50;;;;;;5013012;28;20406;-85
2021/10/12 11:51:48;;;;;;;14.85;10.35;;;17.70;45.90;;;;;;5013833;28;20033;-86
2021/10/12 11:54:20;;;;;;;17.65;10.15;;;17.70;46.00;;;;;;4994562;28;20487;-86
2021/10/12 11:56:46;;;;;;;17.45;10.38;;;17.70;46.20;;;;;;5015777;28;20076;-86
2021/10/12 11:59:12;;;;;;;13.90;9.88;;;17.70;46.20;;;;;;5012832;28;20073;-86
2021/10/12 12:01:44;;;;;;;16.55;9.77;;;17.70;46.00;;;;;;5013684;28;20037;-86
2021/10/12 12:04:11;;;;;;;15.73;10.27;;;17.70;46.20;;;;;;5005746;28;20124;-85
2021/10/12 12:06:41;;;;;;;15.00;10.05;;;17.70;46.00;;;;;;5024655;28;20076;-84
2021/10/12 12:09:19;;;;;;;18.02;10.43;;;17.70;46.10;;;;;;5010681;28;20033;-86
2021/10/12 12:11:47;;;;;;;14.13;9.93;;;17.70;45.90;;;;;;5034978;28;20037;-85
2021/10/12 12:14:13;;;;;;;14.98;10.43;;;17.70;45.70;;;;;;5022782;28;20030;-85
2021/10/12 12:16:39;;;;;;;13.98;9.05;;;17.70;45.70;;;;;;5044845;28;20036;-85
2021/10/12 12:19:20;;;;;;;17.02;10.45;;;17.70;45.50;;;;;;5014809;28;20418;-86
2021/10/12 12:21:49;;;;;;;12.88;9.45;;;17.70;45.30;;;;;;5028408;28;20507;-86
2021/10/12 12:24:20;;;;;;;12.55;9.90;;;17.70;45.10;;;;;;5029575;28;20554;-87
2021/10/12 12:26:46;;;;;;;16.25;10.65;;;17.70;45.20;;;;;;5033273;28;20087;-85
2021/10/12 12:29:20;;;;;;;14.32;10.00;;;17.70;45.20;;;;;;4999837;28;20116;-85
2021/10/12 12:31:52;;;;;;;16.50;9.45;;;17.70;45.40;;;;;;5027621;28;20026;-85
2021/10/12 12:34:30;;;;;;;15.43;9.60;;;17.70;45.40;;;;;;4994004;28;20052;-85
2021/10/12 12:36:56;;;;;;;14.68;10.38;;;17.70;45.80;;;;;;5011612;28;20033;-85
2021/10/12 12:39:37;;;;;;;16.23;10.95;;;17.70;45.70;;;;;;5026581;28;20128;-86